Terminal Aerodrome Forecast
Issued by NWS

Home | Current Version | Previous Version | Text Only | Print | Product List | Glossary On
Versions: 1 2 3 4 5 6 7 8 9 10 11 12 13
031
FTUS43 KTOP 192320
TAFFOE
TAF
KFOE 192320Z 2000/2024 18009KT P6SM SCT250
     FM201200 19008KT P6SM BKN010
     FM201400 19008KT 5SM BR BKN006=

USA.gov is the U.S. government's official web portal to all federal, state and local government web resources and services.